Time;durP1;ratioP1;P1;durP2;ratioP2;P2;SDS_P1;SDS_P2;PMS_P1;PMS_P2;Temp;Humidity;BMP_temperature;BMP_pressure;BME280_temperature;BME280_humidity;BME280_pressure;Samples;Min_cycle;Max_cycle;Signal;HPM_P1;HPM_P2
2023/01/23 00:01:03;;;;;;;25.00;23.80;;;20.20;48.20;;;;;;5053137;28;20448;-64
2023/01/23 00:03:30;;;;;;;25.77;24.57;;;20.20;48.20;;;;;;5053217;28;20459;-63
2023/01/23 00:05:58;;;;;;;25.13;23.83;;;20.20;48.20;;;;;;5053104;28;20830;-63
2023/01/23 00:08:25;;;;;;;26.70;25.40;;;20.20;48.10;;;;;;5052568;28;20472;-62
2023/01/23 00:10:53;;;;;;;25.20;23.90;;;20.20;48.10;;;;;;5052220;28;20972;-64
2023/01/23 00:13:21;;;;;;;25.20;24.00;;;20.20;48.10;;;;;;5053025;28;20448;-64
2023/01/23 00:15:48;;;;;;;24.87;23.67;;;20.20;48.00;;;;;;5052951;28;20471;-63
2023/01/23 00:18:15;;;;;;;25.53;24.33;;;20.20;48.00;;;;;;5052585;28;20544;-62
2023/01/23 00:20:42;;;;;;;25.17;23.97;;;20.20;48.10;;;;;;5052691;28;20538;-63
2023/01/23 00:23:10;;;;;;;25.83;24.63;;;20.20;48.00;;;;;;5053006;28;20440;-63
2023/01/23 00:25:37;;;;;;;26.10;24.80;;;20.20;48.00;;;;;;5052807;28;20461;-62
2023/01/23 00:28:06;;;;;;;25.00;23.70;;;20.20;48.10;;;;;;5052412;28;20472;-59
2023/01/23 00:30:33;;;;;;;25.77;24.37;;;20.20;48.00;;;;;;5052534;28;20448;-61
2023/01/23 00:33:00;;;;;;;25.07;23.77;;;20.20;48.00;;;;;;5052623;28;20952;-61
2023/01/23 00:35:27;;;;;;;25.60;24.30;;;20.10;48.00;;;;;;5052684;28;20451;-63
2023/01/23 00:37:54;;;;;;;25.07;23.77;;;20.20;48.00;;;;;;5052316;28;20957;-62
2023/01/23 00:40:21;;;;;;;25.20;24.00;;;20.10;47.90;;;;;;5052376;28;20523;-63
2023/01/23 00:42:48;;;;;;;25.13;23.93;;;20.10;48.00;;;;;;5052480;28;20898;-63
2023/01/23 00:45:17;;;;;;;24.30;23.20;;;20.10;48.00;;;;;;5052783;28;20448;-63
2023/01/23 00:47:44;;;;;;;24.90;23.70;;;20.10;48.00;;;;;;5053057;28;20507;-62
2023/01/23 00:50:11;;;;;;;24.07;22.97;;;20.10;48.00;;;;;;5052700;28;20878;-62
2023/01/23 00:52:38;;;;;;;24.73;23.43;;;20.10;48.00;;;;;;5052590;28;20444;-59
2023/01/23 00:55:06;;;;;;;24.40;23.20;;;20.10;48.00;;;;;;5052751;28;20516;-60
2023/01/23 00:57:33;;;;;;;24.97;23.77;;;20.10;48.00;;;;;;5052804;28;20491;-61
2023/01/23 01:00:00;;;;;;;24.47;23.23;;;20.10;48.00;;;;;;5052050;28;20450;-61
2023/01/23 01:02:28;;;;;;;24.50;23.20;;;20.10;48.00;;;;;;5052342;28;20444;-60
2023/01/23 01:04:55;;;;;;;25.23;23.97;;;20.10;48.10;;;;;;5052472;28;20454;-60
2023/01/23 01:07:22;;;;;;;25.83;24.63;;;20.20;48.20;;;;;;5052528;28;20488;-61
2023/01/23 01:09:49;;;;;;;24.80;23.50;;;20.20;48.20;;;;;;5052517;28;20879;-62
2023/01/23 01:12:18;;;;;;;24.40;23.23;;;20.20;48.20;;;;;;5052042;28;20444;-60
2023/01/23 01:14:44;;;;;;;25.57;24.27;;;20.20;48.20;;;;;;5052118;28;20448;-59
2023/01/23 01:17:11;;;;;;;26.40;25.00;;;20.20;48.20;;;;;;5052057;28;20456;-61
2023/01/23 01:19:39;;;;;;;25.47;24.17;;;20.20;48.20;;;;;;5051560;28;20447;-61
2023/01/23 01:22:06;;;;;;;25.13;23.83;;;20.20;48.20;;;;;;5051964;28;20538;-62
2023/01/23 01:24:33;;;;;;;25.23;24.03;;;20.20;48.30;;;;;;5052093;28;20535;-62
2023/01/23 01:27:00;;;;;;;24.80;23.60;;;20.20;48.20;;;;;;5051923;28;20490;-58
2023/01/23 01:29:27;;;;;;;27.27;25.87;;;20.20;48.20;;;;;;5051615;28;20448;-61
2023/01/23 01:31:53;;;;;;;25.47;24.17;;;20.20;48.20;;;;;;5051797;28;20543;-59
2023/01/23 01:34:20;;;;;;;24.50;23.30;;;20.20;48.20;;;;;;5051967;28;20852;-62
2023/01/23 01:36:50;;;;;;;24.13;22.93;;;20.20;48.20;;;;;;5052761;28;20659;-60
2023/01/23 01:39:17;;;;;;;24.80;23.70;;;20.10;48.10;;;;;;5051220;28;20453;-59
2023/01/23 01:41:44;;;;;;;25.47;24.17;;;20.20;48.20;;;;;;5051498;28;20474;-60
2023/01/23 01:44:17;;;;;;;24.50;23.30;;;20.10;48.10;;;;;;5051590;28;20535;-60
2023/01/23 01:46:44;;;;;;;24.97;23.77;;;20.10;48.20;;;;;;5051272;28;20480;-61
2023/01/23 01:49:14;;;;;;;25.90;24.50;;;20.10;48.20;;;;;;5051175;28;20860;-56
2023/01/23 01:51:49;;;;;;;24.57;23.33;;;20.10;48.20;;;;;;5051526;28;20446;-55
2023/01/23 01:54:24;;;;;;;24.03;22.83;;;20.10;48.20;;;;;;5051769;28;20458;-60
2023/01/23 01:56:55;;;;;;;25.90;24.70;;;20.10;48.20;;;;;;5051655;28;20470;-60
2023/01/23 01:59:24;;;;;;;24.70;23.50;;;20.10;48.20;;;;;;5051560;28;20444;-60
2023/01/23 02:01:56;;;;;;;25.53;24.23;;;20.10;48.30;;;;;;5051877;28;20444;-61
2023/01/23 02:04:23;;;;;;;24.30;22.90;;;20.10;48.30;;;;;;5052012;28;20452;-61
2023/01/23 02:06:52;;;;;;;25.40;24.30;;;20.10;48.30;;;;;;5051688;28;20559;-60
2023/01/23 02:09:24;;;;;;;24.87;23.67;;;20.10;48.30;;;;;;5051487;28;20937;-62
2023/01/23 02:11:51;;;;;;;25.17;23.97;;;20.10;48.30;;;;;;5050851;28;20448;-60
2023/01/23 02:14:19;;;;;;;24.47;23.23;;;20.00;48.20;;;;;;5051851;28;20492;-60
2023/01/23 02:16:49;;;;;;;24.83;23.57;;;20.10;48.30;;;;;;5051873;28;20541;-58
2023/01/23 02:19:25;;;;;;;23.83;22.73;;;20.10;48.30;;;;;;5051556;28;20445;-59
2023/01/23 02:22:00;;;;;;;25.13;23.73;;;20.10;48.40;;;;;;5051857;28;20451;-57
2023/01/23 02:24:34;;;;;;;24.67;23.57;;;20.10;48.40;;;;;;5050848;28;20634;-55
2023/01/23 02:27:03;;;;;;;24.53;23.43;;;20.10;48.40;;;;;;5052732;28;20462;-62
2023/01/23 02:29:40;;;;;;;25.03;23.73;;;20.10;48.40;;;;;;5053165;28;20480;-60
2023/01/23 02:32:07;;;;;;;23.77;22.73;;;20.10;48.40;;;;;;5051947;28;20448;-60
2023/01/23 02:34:34;;;;;;;24.67;23.43;;;20.10;48.50;;;;;;5054458;28;20454;-59
2023/01/23 02:37:01;;;;;;;24.80;23.70;;;20.10;48.40;;;;;;5055036;28;20555;-59
2023/01/23 02:39:28;;;;;;;24.70;23.40;;;20.10;48.40;;;;;;5055121;28;20451;-60
2023/01/23 02:41:56;;;;;;;23.90;22.80;;;20.10;48.40;;;;;;5055418;28;20547;-57
2023/01/23 02:44:26;;;;;;;25.00;23.80;;;20.10;48.40;;;;;;5054922;28;20463;-61
2023/01/23 02:46:53;;;;;;;24.73;23.60;;;20.10;48.40;;;;;;5054949;28;20518;-58
2023/01/23 02:49:21;;;;;;;24.07;22.97;;;20.10;48.40;;;;;;5055074;28;20487;-59
2023/01/23 02:51:49;;;;;;;24.43;23.23;;;20.10;48.30;;;;;;5054879;28;20502;-57
2023/01/23 02:54:17;;;;;;;24.43;23.23;;;20.10;48.30;;;;;;5055069;28;20448;-63
2023/01/23 02:56:44;;;;;;;24.60;23.47;;;20.10;48.40;;;;;;5054164;28;20518;-62
2023/01/23 03:01:57;;;;;;;24.70;23.50;;;20.10;48.30;;;;;;5054568;28;20494;-62
2023/01/23 03:04:24;;;;;;;23.87;22.87;;;20.10;48.30;;;;;;5054583;28;20454;-62
2023/01/23 03:06:51;;;;;;;24.40;23.27;;;20.00;48.20;;;;;;5054310;28;20969;-59
2023/01/23 03:09:19;;;;;;;25.43;24.33;;;20.10;48.30;;;;;;5053875;28;20574;-61
2023/01/23 03:11:46;;;;;;;25.40;24.30;;;20.10;48.30;;;;;;5054277;28;20534;-61
2023/01/23 03:14:15;;;;;;;24.47;23.27;;;20.00;48.20;;;;;;5054261;28;20905;-59
2023/01/23 03:16:43;;;;;;;26.10;24.90;;;20.10;48.30;;;;;;5054037;28;20478;-60
2023/01/23 03:19:12;;;;;;;25.40;24.20;;;20.00;48.20;;;;;;5054151;28;20448;-60
2023/01/23 03:21:40;;;;;;;25.00;23.80;;;20.10;48.30;;;;;;5053937;28;20444;-60
2023/01/23 03:24:09;;;;;;;25.20;23.90;;;20.00;48.30;;;;;;5054080;28;20444;-60
2023/01/23 03:26:38;;;;;;;24.73;23.50;;;20.00;48.20;;;;;;5054036;28;20490;-61
2023/01/23 03:31:49;;;;;;;24.97;23.87;;;20.00;48.30;;;;;;5053781;28;20415;-62
2023/01/23 03:34:17;;;;;;;25.03;23.83;;;20.00;48.30;;;;;;5053810;28;20552;-60
2023/01/23 03:36:45;;;;;;;24.90;23.70;;;20.00;48.30;;;;;;5053801;28;21024;-63
2023/01/23 03:41:58;;;;;;;23.90;22.83;;;20.10;48.40;;;;;;5036046;28;20988;-63
2023/01/23 03:44:25;;;;;;;25.80;24.60;;;20.00;48.40;;;;;;5052091;28;20539;-63
2023/01/23 03:46:52;;;;;;;24.47;23.27;;;20.10;48.50;;;;;;5053514;28;20499;-62
2023/01/23 03:49:21;;;;;;;25.40;24.20;;;20.10;48.50;;;;;;5053491;28;20482;-62
2023/01/23 03:51:47;;;;;;;24.03;22.93;;;20.10;48.50;;;;;;5053497;28;20440;-63
2023/01/23 03:54:14;;;;;;;24.40;23.30;;;20.10;48.50;;;;;;5053115;28;20448;-63
2023/01/23 03:56:42;;;;;;;25.30;24.20;;;20.10;48.50;;;;;;5053263;28;20468;-63
2023/01/23 03:59:09;;;;;;;25.03;23.83;;;20.10;48.50;;;;;;5053288;28;20845;-63
2023/01/23 04:01:37;;;;;;;26.03;24.83;;;20.10;48.50;;;;;;5053287;28;20540;-63
2023/01/23 04:04:04;;;;;;;25.10;23.83;;;20.10;48.50;;;;;;5053075;28;20815;-62
2023/01/23 04:06:33;;;;;;;24.80;23.70;;;20.10;48.50;;;;;;5053440;28;20710;-63
2023/01/23 04:09:00;;;;;;;26.53;25.33;;;20.10;48.50;;;;;;5053022;28;20490;-63
2023/01/23 04:11:27;;;;;;;25.23;24.03;;;20.10;48.50;;;;;;5053357;28;21180;-62
2023/01/23 04:13:54;;;;;;;25.53;24.33;;;20.10;48.50;;;;;;5053120;28;20543;-63
2023/01/23 04:16:22;;;;;;;24.67;23.57;;;20.00;48.40;;;;;;5052799;28;20861;-63
2023/01/23 04:18:48;;;;;;;25.93;24.73;;;20.00;48.40;;;;;;5053000;28;20443;-62
2023/01/23 04:21:15;;;;;;;25.50;24.30;;;20.00;48.30;;;;;;5052901;28;20565;-63
2023/01/23 04:23:43;;;;;;;26.13;24.93;;;20.10;48.40;;;;;;5052874;28;20475;-63
2023/01/23 04:26:10;;;;;;;25.60;24.50;;;20.00;48.30;;;;;;5052513;28;20474;-64
2023/01/23 04:28:37;;;;;;;25.27;24.10;;;20.10;48.40;;;;;;5052872;28;20483;-59
2023/01/23 04:31:04;;;;;;;25.77;24.57;;;20.00;48.30;;;;;;5052531;28;20451;-62
2023/01/23 04:33:31;;;;;;;27.30;26.00;;;20.00;48.30;;;;;;5052763;28;20436;-64
2023/01/23 04:35:59;;;;;;;25.57;24.47;;;20.00;48.30;;;;;;5052682;28;20464;-64
2023/01/23 04:38:28;;;;;;;25.10;23.90;;;20.00;48.30;;;;;;5052356;28;20440;-64
2023/01/23 04:40:57;;;;;;;25.90;24.70;;;20.00;48.30;;;;;;5052945;28;20441;-64
2023/01/23 04:43:24;;;;;;;25.30;24.10;;;20.00;48.30;;;;;;5052692;28;20503;-64
2023/01/23 04:45:52;;;;;;;25.20;24.00;;;20.00;48.30;;;;;;5052363;28;20472;-63
2023/01/23 04:48:18;;;;;;;26.00;24.77;;;20.00;48.30;;;;;;5052454;28;20483;-63
2023/01/23 04:50:45;;;;;;;26.20;25.00;;;20.00;48.30;;;;;;5052406;28;20448;-64
2023/01/23 04:53:12;;;;;;;26.93;25.73;;;20.00;48.30;;;;;;5052298;28;20455;-64
2023/01/23 04:55:39;;;;;;;26.30;25.10;;;20.00;48.40;;;;;;5051547;28;20468;-64
2023/01/23 04:58:10;;;;;;;27.13;25.83;;;20.00;48.40;;;;;;5052297;28;20448;-64
2023/01/23 05:00:37;;;;;;;27.77;26.57;;;20.00;48.40;;;;;;5052045;28;20440;-64
2023/01/23 05:03:03;;;;;;;29.73;28.33;;;20.00;48.40;;;;;;5052216;28;20444;-64
2023/01/23 05:05:31;;;;;;;29.53;27.90;;;20.00;48.50;;;;;;5051324;28;21025;-63
2023/01/23 05:07:58;;;;;;;29.77;28.43;;;20.00;48.50;;;;;;5051871;28;20484;-60
2023/01/23 05:10:25;;;;;;;28.80;27.60;;;20.00;48.50;;;;;;5051850;28;20968;-62
2023/01/23 05:12:52;;;;;;;31.50;30.10;;;20.00;48.50;;;;;;5051950;28;20447;-62
2023/01/23 05:15:20;;;;;;;29.37;28.17;;;20.00;48.50;;;;;;5051823;28;20450;-63
2023/01/23 05:17:47;;;;;;;29.47;28.07;;;20.00;48.50;;;;;;5051461;28;20967;-61
2023/01/23 05:20:14;;;;;;;28.40;27.10;;;20.00;48.50;;;;;;5051720;28;20532;-63
2023/01/23 05:22:50;;;;;;;29.43;28.03;;;20.00;48.40;;;;;;5051927;28;20941;-63
2023/01/23 05:25:18;;;;;;;27.40;26.20;;;20.10;48.50;;;;;;5051751;28;20934;-63
2023/01/23 05:27:45;;;;;;;27.93;26.70;;;20.10;48.50;;;;;;5051756;28;20452;-63
2023/01/23 05:30:12;;;;;;;28.07;26.77;;;20.00;48.40;;;;;;5051359;28;20877;-63
2023/01/23 05:32:40;;;;;;;28.93;27.63;;;20.10;48.50;;;;;;5051850;28;20448;-63
2023/01/23 05:35:08;;;;;;;27.97;26.70;;;20.00;49.00;;;;;;5051671;28;20470;-63
2023/01/23 05:37:35;;;;;;;27.90;26.60;;;20.00;48.40;;;;;;5051893;28;20499;-63
2023/01/23 05:40:03;;;;;;;27.67;26.47;;;20.00;48.40;;;;;;5051601;28;20440;-62
2023/01/23 05:42:29;;;;;;;31.53;30.13;;;20.00;48.40;;;;;;5051441;28;20450;-61
2023/01/23 05:44:56;;;;;;;30.40;29.00;;;20.00;48.40;;;;;;5051559;28;20950;-63
2023/01/23 05:47:23;;;;;;;28.10;26.80;;;20.00;48.40;;;;;;5051505;28;20559;-62
2023/01/23 05:49:51;;;;;;;29.47;28.07;;;20.00;48.50;;;;;;5051246;28;20484;-63
2023/01/23 05:52:18;;;;;;;28.60;27.40;;;20.00;48.50;;;;;;5051578;28;20941;-63
2023/01/23 05:54:45;;;;;;;28.90;27.60;;;20.00;48.40;;;;;;5051216;28;20450;-63
2023/01/23 05:57:12;;;;;;;28.00;26.70;;;19.90;48.40;;;;;;5051372;28;21074;-63
2023/01/23 05:59:38;;;;;;;27.10;25.80;;;19.90;48.40;;;;;;5051198;28;20531;-60
2023/01/23 06:02:05;;;;;;;27.67;26.47;;;19.90;48.40;;;;;;5051132;28;20527;-60
2023/01/23 06:04:32;;;;;;;27.00;25.80;;;19.90;48.40;;;;;;5051406;28;20543;-62
2023/01/23 06:07:00;;;;;;;26.60;25.40;;;19.90;48.40;;;;;;5051170;28;20464;-63
2023/01/23 06:09:27;;;;;;;29.07;27.77;;;19.90;48.40;;;;;;5055177;28;20480;-63
2023/01/23 06:11:54;;;;;;;28.33;26.97;;;19.90;48.40;;;;;;5055210;28;20448;-62
2023/01/23 06:14:21;;;;;;;27.20;26.00;;;19.90;49.00;;;;;;5055302;28;20444;-61
2023/01/23 06:16:47;;;;;;;28.63;27.10;;;19.90;48.50;;;;;;5055263;28;20559;-61
2023/01/23 06:19:14;;;;;;;31.27;29.77;;;19.90;48.50;;;;;;5055221;28;20489;-63
2023/01/23 06:21:41;;;;;;;29.13;27.73;;;19.90;49.10;;;;;;5055436;28;20538;-62
2023/01/23 06:24:10;;;;;;;28.97;27.67;;;19.90;48.60;;;;;;5055353;28;20986;-63
2023/01/23 06:26:36;;;;;;;30.10;28.70;;;19.90;48.60;;;;;;5055156;28;20471;-62
2023/01/23 06:29:04;;;;;;;28.80;27.50;;;20.00;48.70;;;;;;5054877;28;20490;-62
2023/01/23 06:31:31;;;;;;;29.27;27.87;;;20.00;48.70;;;;;;5055022;28;20443;-63
2023/01/23 06:33:59;;;;;;;28.00;26.77;;;20.00;48.80;;;;;;5054967;28;20455;-62
2023/01/23 06:36:26;;;;;;;27.97;26.67;;;20.00;48.80;;;;;;5054520;28;20487;-62
2023/01/23 06:38:53;;;;;;;27.67;26.47;;;20.00;48.80;;;;;;5054681;28;21036;-62
2023/01/23 06:41:23;;;;;;;28.50;27.10;;;20.00;48.70;;;;;;5054890;28;20456;-62
2023/01/23 06:43:50;;;;;;;27.57;26.37;;;20.00;48.80;;;;;;5055046;28;21095;-63
2023/01/23 06:46:17;;;;;;;29.23;27.83;;;20.00;48.70;;;;;;5055068;28;20538;-56
2023/01/23 06:48:43;;;;;;;27.97;26.67;;;20.00;48.70;;;;;;5054432;28;20480;-56
2023/01/23 06:51:10;;;;;;;32.20;30.30;;;20.00;48.70;;;;;;5054487;28;20530;-59
2023/01/23 06:53:37;;;;;;;43.63;39.27;;;20.00;48.60;;;;;;5054700;28;20475;-58
2023/01/23 06:56:07;;;;;;;47.20;42.53;;;20.00;48.60;;;;;;5054432;28;21038;-60
2023/01/23 06:58:37;;;;;;;53.07;45.07;;;20.00;48.70;;;;;;5054225;28;20436;-55
2023/01/23 07:01:08;;;;;;;52.60;47.00;;;20.00;48.80;;;;;;5054039;28;20475;-61
2023/01/23 07:03:35;;;;;;;56.27;49.93;;;20.00;48.80;;;;;;5054507;28;20533;-57
2023/01/23 07:06:05;;;;;;;78.17;56.03;;;20.00;48.90;;;;;;5054251;28;20486;-62
2023/01/23 07:08:32;;;;;;;67.60;57.30;;;20.00;49.10;;;;;;5053832;28;20458;-60
2023/01/23 07:10:59;;;;;;;63.27;56.50;;;20.00;49.60;;;;;;5054163;28;20451;-61
2023/01/23 07:13:26;;;;;;;83.23;61.10;;;20.00;50.20;;;;;;5054273;28;20527;-56
2023/01/23 07:15:55;;;;;;;63.07;56.03;;;20.00;51.10;;;;;;5054120;28;20969;-59
2023/01/23 07:18:22;;;;;;;69.20;56.63;;;20.00;51.30;;;;;;5053535;28;20456;-60
2023/01/23 07:20:50;;;;;;;71.27;64.20;;;20.00;51.20;;;;;;5053258;28;20440;-51
2023/01/23 07:23:16;;;;;;;56.77;50.33;;;20.10;52.20;;;;;;5053495;28;20440;-56
2023/01/23 07:25:44;;;;;;;69.23;54.73;;;20.00;52.90;;;;;;5053961;28;20551;-55
2023/01/23 07:28:11;;;;;;;58.90;51.83;;;20.00;52.60;;;;;;5053906;28;20448;-55
2023/01/23 07:30:38;;;;;;;57.10;50.10;;;20.00;52.40;;;;;;5053623;28;20479;-55
2023/01/23 07:33:06;;;;;;;63.73;49.67;;;20.00;52.10;;;;;;5053586;28;20446;-56
2023/01/23 07:35:33;;;;;;;56.63;50.80;;;20.00;51.90;;;;;;5053659;28;20472;-56
2023/01/23 07:38:00;;;;;;;59.57;52.20;;;20.00;51.70;;;;;;5053844;28;20452;-51
2023/01/23 07:40:27;;;;;;;54.97;49.30;;;20.00;51.60;;;;;;5053593;28;20446;-55
2023/01/23 07:42:56;;;;;;;52.47;47.20;;;20.00;51.50;;;;;;5053677;28;20488;-55
2023/01/23 07:45:23;;;;;;;60.17;51.07;;;20.00;51.40;;;;;;5053336;28;20452;-53
2023/01/23 07:47:49;;;;;;;55.17;46.70;;;20.00;51.40;;;;;;5053724;28;20550;-53
2023/01/23 07:50:18;;;;;;;53.23;47.30;;;20.00;51.40;;;;;;5053167;28;20566;-52
2023/01/23 07:52:45;;;;;;;52.90;47.87;;;20.00;51.30;;;;;;5053573;28;20539;-51
2023/01/23 07:55:11;;;;;;;52.10;46.67;;;20.00;51.30;;;;;;5053500;28;20535;-54
2023/01/23 07:57:38;;;;;;;50.77;45.60;;;20.10;51.30;;;;;;5053472;28;20458;-52
2023/01/23 08:00:06;;;;;;;50.20;45.50;;;20.10;51.20;;;;;;5053194;28;20436;-51
2023/01/23 08:02:33;;;;;;;49.67;44.50;;;20.10;51.20;;;;;;5053380;28;20567;-53
2023/01/23 08:05:00;;;;;;;52.87;47.13;;;20.10;51.10;;;;;;5053301;28;20440;-55
2023/01/23 08:07:28;;;;;;;47.00;42.03;;;20.10;51.00;;;;;;5053158;28;20811;-52
2023/01/23 08:09:55;;;;;;;50.07;45.37;;;20.10;51.00;;;;;;5052637;28;20555;-52
2023/01/23 08:12:22;;;;;;;46.50;41.73;;;20.10;50.90;;;;;;5053143;28;20484;-55
2023/01/23 08:14:49;;;;;;;49.83;44.70;;;20.10;50.90;;;;;;5053093;28;20876;-53
2023/01/23 08:17:16;;;;;;;48.10;43.60;;;20.10;50.80;;;;;;5052928;28;20547;-55
2023/01/23 08:19:42;;;;;;;45.10;40.90;;;20.10;50.80;;;;;;5052798;28;20436;-53
2023/01/23 08:22:09;;;;;;;46.30;41.77;;;20.10;50.70;;;;;;5053075;28;20444;-56
2023/01/23 08:24:38;;;;;;;45.60;40.80;;;20.10;50.70;;;;;;5052840;28;20501;-58
2023/01/23 08:27:04;;;;;;;44.30;40.30;;;20.10;50.60;;;;;;5052695;28;20849;-57
2023/01/23 08:29:31;;;;;;;41.53;37.93;;;20.10;50.50;;;;;;5052390;28;20725;-55
2023/01/23 08:31:58;;;;;;;41.50;38.30;;;20.10;50.50;;;;;;5052107;28;20450;-57
2023/01/23 08:34:25;;;;;;;44.13;39.83;;;20.10;50.40;;;;;;5052591;28;20451;-52
2023/01/23 08:36:52;;;;;;;45.60;41.37;;;20.10;50.40;;;;;;5052659;28;20464;-56
2023/01/23 08:39:20;;;;;;;40.07;36.57;;;20.10;50.40;;;;;;5052399;28;20817;-54
2023/01/23 08:41:48;;;;;;;40.60;36.67;;;20.10;50.30;;;;;;5052569;28;20843;-54
2023/01/23 08:44:14;;;;;;;39.53;36.40;;;20.10;50.30;;;;;;5052418;28;20523;-57
2023/01/23 08:46:41;;;;;;;39.67;36.23;;;20.10;50.30;;;;;;5052222;28;20476;-54
2023/01/23 08:49:08;;;;;;;42.17;38.27;;;20.10;50.30;;;;;;5052114;28;20444;-53
2023/01/23 08:51:35;;;;;;;40.07;36.33;;;20.00;50.20;;;;;;5052271;28;20450;-55
2023/01/23 08:54:02;;;;;;;40.10;36.40;;;20.00;50.20;;;;;;5052305;28;20934;-55
2023/01/23 08:56:29;;;;;;;38.20;35.30;;;20.00;50.10;;;;;;5052194;28;20954;-54
2023/01/23 08:58:57;;;;;;;38.03;34.77;;;20.00;50.10;;;;;;5052013;28;20448;-55
2023/01/23 09:01:26;;;;;;;38.40;35.37;;;20.00;50.10;;;;;;5052215;28;20448;-53
2023/01/23 09:03:53;;;;;;;40.00;36.20;;;20.00;50.10;;;;;;5052143;28;20454;-52
2023/01/23 09:06:21;;;;;;;37.93;34.83;;;19.90;50.00;;;;;;5052074;28;20835;-52
2023/01/23 09:08:49;;;;;;;38.63;35.43;;;19.90;50.00;;;;;;5051923;28;20443;-52
2023/01/23 09:11:17;;;;;;;41.80;38.13;;;19.90;50.00;;;;;;5051860;28;21009;-56
2023/01/23 09:13:45;;;;;;;37.13;34.13;;;19.90;50.00;;;;;;5052052;28;20448;-53
2023/01/23 09:16:13;;;;;;;35.73;32.80;;;19.90;50.00;;;;;;5051829;28;20552;-54
2023/01/23 09:18:40;;;;;;;34.57;32.27;;;19.90;50.00;;;;;;5051943;28;20448;-55
2023/01/23 09:21:08;;;;;;;36.23;33.23;;;20.00;50.20;;;;;;5051857;28;20440;-55
2023/01/23 09:23:35;;;;;;;38.50;35.30;;;20.00;50.20;;;;;;5051833;28;20816;-55
2023/01/23 09:26:05;;;;;;;38.93;35.40;;;20.00;50.20;;;;;;5051680;28;20567;-57
2023/01/23 09:28:32;;;;;;;35.87;33.23;;;20.00;50.20;;;;;;5051770;28;20519;-55
2023/01/23 09:31:03;;;;;;;35.40;32.70;;;20.00;50.20;;;;;;5051389;28;21004;-56
2023/01/23 09:33:31;;;;;;;37.37;34.60;;;20.00;50.20;;;;;;5051710;28;20956;-55
2023/01/23 09:35:58;;;;;;;37.33;34.33;;;20.10;50.20;;;;;;5051669;28;20899;-53
2023/01/23 09:38:25;;;;;;;34.37;31.63;;;20.00;50.20;;;;;;5051699;28;20534;-52
2023/01/23 09:40:56;;;;;;;34.60;32.10;;;20.10;50.10;;;;;;5051393;28;20519;-54
2023/01/23 09:43:26;;;;;;;35.17;32.50;;;20.10;50.10;;;;;;5051640;28;20449;-57
2023/01/23 09:46:01;;;;;;;34.60;32.00;;;20.10;50.10;;;;;;5051513;28;20476;-56
2023/01/23 09:48:38;;;;;;;33.20;30.83;;;20.10;50.10;;;;;;5051646;28;20447;-52
2023/01/23 09:51:12;;;;;;;33.27;31.13;;;20.10;50.00;;;;;;5051212;28;20506;-58
2023/01/23 09:53:41;;;;;;;34.30;32.00;;;20.10;49.90;;;;;;5051407;28;20549;-56
2023/01/23 09:56:20;;;;;;;34.67;32.20;;;20.10;49.90;;;;;;5051458;28;20478;-53
2023/01/23 09:58:58;;;;;;;33.97;31.87;;;20.10;49.80;;;;;;5051396;28;20761;-54
2023/01/23 10:01:28;;;;;;;33.33;30.87;;;20.10;49.80;;;;;;5051298;28;20466;-53
2023/01/23 10:03:58;;;;;;;31.80;29.80;;;20.10;49.70;;;;;;5051689;28;20444;-55
2023/01/23 10:06:27;;;;;;;32.63;30.30;;;20.10;49.70;;;;;;5051495;28;20470;-53
2023/01/23 10:09:13;;;;;;;32.37;30.10;;;20.10;49.70;;;;;;5051402;28;20448;-58
2023/01/23 10:11:52;;;;;;;31.60;29.80;;;20.10;49.60;;;;;;5051325;28;20446;-55
2023/01/23 10:14:47;;;;;;;31.30;29.50;;;20.10;49.50;;;;;;5051308;28;20444;-57
2023/01/23 10:17:23;;;;;;;31.57;29.53;;;20.10;49.50;;;;;;5051221;28;20823;-57
2023/01/23 10:20:12;;;;;;;30.50;28.60;;;20.10;49.50;;;;;;5051101;28;20443;-55
2023/01/23 10:22:46;;;;;;;30.57;28.77;;;20.00;49.40;;;;;;5051291;28;20444;-52
2023/01/23 10:25:17;;;;;;;31.27;29.37;;;20.00;49.40;;;;;;5051284;28;20531;-53
2023/01/23 10:27:47;;;;;;;30.13;28.23;;;20.00;49.40;;;;;;5051160;28;20531;-57
2023/01/23 10:30:21;;;;;;;31.83;29.97;;;20.00;49.30;;;;;;5050759;28;20490;-57
2023/01/23 10:32:53;;;;;;;31.57;29.43;;;20.00;49.30;;;;;;5051146;28;20454;-56
2023/01/23 10:35:27;;;;;;;31.10;29.20;;;20.00;49.30;;;;;;5051054;28;20880;-57
2023/01/23 10:38:01;;;;;;;30.43;28.63;;;20.00;49.30;;;;;;5051108;28;20452;-60
2023/01/23 10:43:14;;;;;;;29.43;27.93;;;20.00;49.20;;;;;;5051186;28;20499;-57
2023/01/23 10:45:42;;;;;;;30.40;28.50;;;19.90;49.20;;;;;;5050777;28;20476;-57
2023/01/23 10:48:27;;;;;;;30.63;28.93;;;19.90;49.20;;;;;;5051181;28;20450;-58
2023/01/23 10:50:55;;;;;;;29.70;28.10;;;19.90;49.20;;;;;;5050876;28;20522;-58
2023/01/23 10:53:23;;;;;;;31.27;29.37;;;19.90;49.10;;;;;;5051589;28;20551;-59
2023/01/23 10:55:52;;;;;;;29.90;28.30;;;19.90;49.20;;;;;;5054547;28;20818;-60
2023/01/23 10:58:31;;;;;;;31.00;29.10;;;19.90;49.20;;;;;;5054539;28;20446;-58
2023/01/23 11:00:59;;;;;;;29.70;27.97;;;19.90;49.20;;;;;;5054270;28;20527;-58
2023/01/23 11:03:31;;;;;;;29.97;28.33;;;19.90;49.30;;;;;;5054384;28;20861;-59
2023/01/23 11:06:04;;;;;;;28.83;27.30;;;19.90;49.30;;;;;;5054316;28;20471;-58
2023/01/23 11:08:34;;;;;;;31.00;29.40;;;20.00;49.40;;;;;;5054415;28;20444;-60
2023/01/23 11:11:23;;;;;;;30.00;28.33;;;20.00;49.40;;;;;;5053991;28;21005;-58
2023/01/23 11:13:55;;;;;;;30.73;28.83;;;20.00;49.40;;;;;;5054251;28;20440;-60
2023/01/23 11:16:23;;;;;;;30.83;29.03;;;20.00;50.00;;;;;;5054202;28;20464;-57
2023/01/23 11:18:54;;;;;;;29.53;27.93;;;20.10;49.50;;;;;;5054149;28;20535;-60
2023/01/23 11:21:23;;;;;;;28.43;26.77;;;20.10;49.40;;;;;;5054085;28;21085;-60
2023/01/23 11:24:08;;;;;;;27.70;26.20;;;20.10;49.40;;;;;;5054136;28;20820;-59
2023/01/23 11:26:37;;;;;;;27.50;26.00;;;20.10;49.30;;;;;;5054032;28;20476;-60
2023/01/23 11:29:20;;;;;;;27.83;26.33;;;20.10;49.30;;;;;;5053680;28;20440;-60
2023/01/23 11:31:48;;;;;;;28.00;26.50;;;20.10;49.20;;;;;;5053956;28;20690;-60
2023/01/23 11:34:19;;;;;;;29.13;27.53;;;20.10;49.20;;;;;;5053841;28;20469;-59
2023/01/23 11:36:54;;;;;;;28.07;26.37;;;20.10;49.10;;;;;;5053677;28;20467;-59
2023/01/23 11:39:48;;;;;;;28.40;26.90;;;20.10;49.00;;;;;;5053708;28;20458;-59
2023/01/23 11:42:16;;;;;;;28.80;27.30;;;20.10;49.00;;;;;;5053774;28;20455;-57
2023/01/23 11:44:43;;;;;;;29.27;27.77;;;20.10;48.90;;;;;;5053760;28;20539;-56
2023/01/23 11:47:36;;;;;;;28.73;27.13;;;20.10;48.90;;;;;;5053645;28;20507;-54
2023/01/23 11:50:17;;;;;;;28.53;27.07;;;20.10;48.90;;;;;;5053266;28;20444;-58
2023/01/23 11:52:55;;;;;;;29.47;27.93;;;20.10;48.80;;;;;;5053636;28;20444;-58
2023/01/23 11:56:13;;;;;;;29.00;27.60;;;20.10;48.80;;;;;;5053501;28;20444;-56
2023/01/23 11:59:01;;;;;;;29.17;27.73;;;20.10;48.70;;;;;;5005555;28;20945;-60
2023/01/23 12:01:34;;;;;;;29.30;27.70;;;20.10;48.70;;;;;;5053401;28;20515;-59
2023/01/23 12:04:22;;;;;;;29.30;27.83;;;20.10;48.70;;;;;;5053433;28;20436;-59
2023/01/23 12:06:58;;;;;;;28.63;27.23;;;20.10;48.70;;;;;;5052643;28;20957;-57
2023/01/23 12:09:33;;;;;;;28.30;26.90;;;20.00;48.50;;;;;;5053315;28;20444;-59
2023/01/23 12:12:10;;;;;;;29.67;28.27;;;20.00;49.10;;;;;;5053137;28;20479;-56
2023/01/23 12:14:46;;;;;;;28.87;27.47;;;20.00;49.00;;;;;;5053089;28;20801;-58
2023/01/23 12:17:26;;;;;;;29.80;28.33;;;20.00;48.50;;;;;;5053154;28;20475;-58
2023/01/23 12:20:31;;;;;;;28.90;27.40;;;20.10;48.50;;;;;;5052822;28;20452;-58
2023/01/23 12:23:22;;;;;;;28.57;27.00;;;20.10;48.50;;;;;;5029435;28;20459;-58
2023/01/23 12:26:01;;;;;;;27.87;26.37;;;20.00;48.40;;;;;;5052796;28;20547;-57
2023/01/23 12:28:46;;;;;;;28.00;26.57;;;20.00;48.40;;;;;;5052850;28;20526;-58
2023/01/23 12:31:24;;;;;;;28.33;26.70;;;20.00;48.40;;;;;;5052735;28;20490;-56
2023/01/23 12:34:15;;;;;;;28.53;27.13;;;20.00;48.40;;;;;;5052765;28;20562;-57
2023/01/23 12:37:11;;;;;;;28.50;27.10;;;19.90;48.30;;;;;;5052589;28;20555;-57
2023/01/23 12:39:58;;;;;;;27.93;26.43;;;19.90;48.30;;;;;;5052462;28;20444;-58
2023/01/23 12:42:30;;;;;;;28.03;26.73;;;19.90;48.30;;;;;;5052530;28;20800;-58
2023/01/23 12:45:03;;;;;;;28.00;26.70;;;19.90;48.30;;;;;;5052533;28;20441;-58
2023/01/23 12:47:36;;;;;;;29.40;27.90;;;20.00;48.50;;;;;;5052884;28;20820;-51
2023/01/23 12:50:11;;;;;;;28.10;26.80;;;19.90;48.40;;;;;;5052190;28;20451;-57
2023/01/23 12:52:44;;;;;;;30.00;28.40;;;20.00;48.50;;;;;;5052453;28;20451;-51